sensor_id;sensor_type;location;lat;lon;timestamp;P1;durP1;ratioP1;P2;durP2;ratioP2
57057;SDS011;55017;52.848;6.748;2023-02-15T00:01:10;163.13;;;155.75;;
57057;SDS011;55017;52.848;6.748;2023-02-15T00:03:37;164.23;;;156.57;;
57057;SDS011;55017;52.848;6.748;2023-02-15T00:06:03;157.73;;;150.48;;
57057;SDS011;55017;52.848;6.748;2023-02-15T00:08:30;158.13;;;150.93;;
57057;SDS011;55017;52.848;6.748;2023-02-15T00:11:09;157.18;;;149.57;;
57057;SDS011;55017;52.848;6.748;2023-02-15T00:13:35;161.25;;;154.15;;
57057;SDS011;55017;52.848;6.748;2023-02-15T00:16:03;157.55;;;150.60;;
57057;SDS011;55017;52.848;6.748;2023-02-15T00:18:30;161.45;;;154.57;;
57057;SDS011;55017;52.848;6.748;2023-02-15T00:20:56;157.90;;;151.07;;
57057;SDS011;55017;52.848;6.748;2023-02-15T00:23:22;157.27;;;150.65;;
57057;SDS011;55017;52.848;6.748;2023-02-15T00:25:48;158.57;;;151.48;;
57057;SDS011;55017;52.848;6.748;2023-02-15T00:28:15;159.57;;;152.95;;
57057;SDS011;55017;52.848;6.748;2023-02-15T00:30:41;159.05;;;152.05;;
57057;SDS011;55017;52.848;6.748;2023-02-15T00:33:07;157.52;;;150.52;;
57057;SDS011;55017;52.848;6.748;2023-02-15T00:35:33;159.55;;;152.75;;
57057;SDS011;55017;52.848;6.748;2023-02-15T00:37:59;159.73;;;153.07;;
57057;SDS011;55017;52.848;6.748;2023-02-15T00:40:25;161.40;;;154.68;;
57057;SDS011;55017;52.848;6.748;2023-02-15T00:42:51;159.65;;;152.77;;
57057;SDS011;55017;52.848;6.748;2023-02-15T00:45:16;159.38;;;152.45;;
57057;SDS011;55017;52.848;6.748;2023-02-15T00:47:43;158.32;;;151.63;;
57057;SDS011;55017;52.848;6.748;2023-02-15T00:50:09;166.45;;;158.68;;
57057;SDS011;55017;52.848;6.748;2023-02-15T00:52:35;162.13;;;154.98;;
57057;SDS011;55017;52.848;6.748;2023-02-15T00:55:01;157.45;;;150.63;;
57057;SDS011;55017;52.848;6.748;2023-02-15T00:57:27;156.88;;;149.85;;
57057;SDS011;55017;52.848;6.748;2023-02-15T00:59:53;164.20;;;157.00;;
57057;SDS011;55017;52.848;6.748;2023-02-15T01:02:19;158.18;;;151.50;;
57057;SDS011;55017;52.848;6.748;2023-02-15T01:04:45;158.00;;;151.30;;
57057;SDS011;55017;52.848;6.748;2023-02-15T01:07:11;161.25;;;154.32;;
57057;SDS011;55017;52.848;6.748;2023-02-15T01:09:36;161.70;;;154.27;;
57057;SDS011;55017;52.848;6.748;2023-02-15T01:12:03;164.85;;;157.20;;
57057;SDS011;55017;52.848;6.748;2023-02-15T01:14:29;163.23;;;156.00;;
57057;SDS011;55017;52.848;6.748;2023-02-15T01:16:55;163.30;;;155.65;;
57057;SDS011;55017;52.848;6.748;2023-02-15T01:19:21;160.60;;;153.23;;
57057;SDS011;55017;52.848;6.748;2023-02-15T01:21:46;161.77;;;154.68;;
57057;SDS011;55017;52.848;6.748;2023-02-15T01:24:13;164.15;;;156.70;;
57057;SDS011;55017;52.848;6.748;2023-02-15T01:26:39;163.10;;;155.93;;
57057;SDS011;55017;52.848;6.748;2023-02-15T01:29:05;165.13;;;157.75;;
57057;SDS011;55017;52.848;6.748;2023-02-15T01:31:31;160.07;;;153.10;;
57057;SDS011;55017;52.848;6.748;2023-02-15T01:33:57;157.40;;;150.48;;
57057;SDS011;55017;52.848;6.748;2023-02-15T01:36:23;164.20;;;157.18;;
57057;SDS011;55017;52.848;6.748;2023-02-15T01:38:49;165.40;;;158.43;;
57057;SDS011;55017;52.848;6.748;2023-02-15T01:41:15;162.07;;;154.70;;
57057;SDS011;55017;52.848;6.748;2023-02-15T01:43:57;162.50;;;155.50;;
57057;SDS011;55017;52.848;6.748;2023-02-15T01:46:43;165.88;;;158.60;;
57057;SDS011;55017;52.848;6.748;2023-02-15T01:49:13;158.00;;;151.07;;
57057;SDS011;55017;52.848;6.748;2023-02-15T01:51:40;164.13;;;156.70;;
57057;SDS011;55017;52.848;6.748;2023-02-15T01:56:40;161.55;;;154.55;;
57057;SDS011;55017;52.848;6.748;2023-02-15T01:59:08;164.30;;;157.18;;
57057;SDS011;55017;52.848;6.748;2023-02-15T02:01:35;163.18;;;156.35;;
57057;SDS011;55017;52.848;6.748;2023-02-15T02:06:30;160.60;;;153.88;;
57057;SDS011;55017;52.848;6.748;2023-02-15T02:08:57;163.60;;;156.13;;
57057;SDS011;55017;52.848;6.748;2023-02-15T02:11:24;163.32;;;156.20;;
57057;SDS011;55017;52.848;6.748;2023-02-15T02:13:50;160.60;;;153.40;;
57057;SDS011;55017;52.848;6.748;2023-02-15T02:16:36;161.85;;;154.48;;
57057;SDS011;55017;52.848;6.748;2023-02-15T02:27:37;160.55;;;153.30;;
57057;SDS011;55017;52.848;6.748;2023-02-15T02:34:50;156.75;;;149.50;;
57057;SDS011;55017;52.848;6.748;2023-02-15T02:37:37;157.85;;;150.77;;
57057;SDS011;55017;52.848;6.748;2023-02-15T02:45:38;162.38;;;155.20;;
57057;SDS011;55017;52.848;6.748;2023-02-15T02:48:13;164.52;;;156.98;;
57057;SDS011;55017;52.848;6.748;2023-02-15T02:50:40;160.75;;;154.00;;
57057;SDS011;55017;52.848;6.748;2023-02-15T02:53:07;165.43;;;157.98;;
57057;SDS011;55017;52.848;6.748;2023-02-15T02:55:38;161.13;;;153.98;;
57057;SDS011;55017;52.848;6.748;2023-02-15T02:58:09;163.93;;;156.43;;
57057;SDS011;55017;52.848;6.748;2023-02-15T03:00:40;163.50;;;156.23;;
57057;SDS011;55017;52.848;6.748;2023-02-15T03:03:09;158.13;;;151.02;;
57057;SDS011;55017;52.848;6.748;2023-02-15T03:05:38;163.30;;;155.73;;
57057;SDS011;55017;52.848;6.748;2023-02-15T03:08:06;165.18;;;157.63;;
57057;SDS011;55017;52.848;6.748;2023-02-15T03:10:34;159.13;;;151.63;;
57057;SDS011;55017;52.848;6.748;2023-02-15T03:13:02;159.70;;;152.38;;
57057;SDS011;55017;52.848;6.748;2023-02-15T03:15:29;164.10;;;156.63;;
57057;SDS011;55017;52.848;6.748;2023-02-15T03:18:18;164.98;;;157.23;;
57057;SDS011;55017;52.848;6.748;2023-02-15T03:20:45;167.18;;;159.23;;
57057;SDS011;55017;52.848;6.748;2023-02-15T03:23:13;167.10;;;158.73;;
57057;SDS011;55017;52.848;6.748;2023-02-15T03:25:42;171.60;;;162.05;;
57057;SDS011;55017;52.848;6.748;2023-02-15T03:28:09;172.55;;;162.73;;
57057;SDS011;55017;52.848;6.748;2023-02-15T03:30:37;179.00;;;165.88;;
57057;SDS011;55017;52.848;6.748;2023-02-15T03:33:05;181.35;;;169.90;;
57057;SDS011;55017;52.848;6.748;2023-02-15T03:35:44;178.20;;;167.57;;
57057;SDS011;55017;52.848;6.748;2023-02-15T03:38:10;176.43;;;166.15;;
57057;SDS011;55017;52.848;6.748;2023-02-15T03:40:43;174.45;;;165.23;;
57057;SDS011;55017;52.848;6.748;2023-02-15T03:46:24;168.10;;;159.95;;
57057;SDS011;55017;52.848;6.748;2023-02-15T03:49:03;167.10;;;158.63;;
57057;SDS011;55017;52.848;6.748;2023-02-15T03:51:32;168.05;;;159.93;;
57057;SDS011;55017;52.848;6.748;2023-02-15T03:54:05;166.75;;;158.18;;
57057;SDS011;55017;52.848;6.748;2023-02-15T03:56:33;179.32;;;168.25;;
57057;SDS011;55017;52.848;6.748;2023-02-15T03:59:00;178.55;;;163.30;;
57057;SDS011;55017;52.848;6.748;2023-02-15T04:01:50;223.48;;;165.82;;
57057;SDS011;55017;52.848;6.748;2023-02-15T04:04:42;216.95;;;173.05;;
57057;SDS011;55017;52.848;6.748;2023-02-15T04:07:08;228.68;;;172.50;;
57057;SDS011;55017;52.848;6.748;2023-02-15T04:09:35;334.83;;;186.30;;
57057;SDS011;55017;52.848;6.748;2023-02-15T04:12:20;190.45;;;168.30;;
57057;SDS011;55017;52.848;6.748;2023-02-15T04:14:46;188.75;;;170.50;;
57057;SDS011;55017;52.848;6.748;2023-02-15T04:17:30;208.60;;;167.73;;
57057;SDS011;55017;52.848;6.748;2023-02-15T04:19:56;184.13;;;167.57;;
57057;SDS011;55017;52.848;6.748;2023-02-15T04:22:41;176.82;;;163.77;;
57057;SDS011;55017;52.848;6.748;2023-02-15T04:25:26;178.10;;;165.82;;
57057;SDS011;55017;52.848;6.748;2023-02-15T04:27:52;185.43;;;169.50;;
57057;SDS011;55017;52.848;6.748;2023-02-15T04:30:20;189.13;;;171.20;;
57057;SDS011;55017;52.848;6.748;2023-02-15T04:32:46;264.10;;;177.20;;
57057;SDS011;55017;52.848;6.748;2023-02-15T04:35:12;188.48;;;171.55;;
57057;SDS011;55017;52.848;6.748;2023-02-15T04:37:39;217.07;;;168.23;;
57057;SDS011;55017;52.848;6.748;2023-02-15T04:40:05;231.00;;;177.25;;
57057;SDS011;55017;52.848;6.748;2023-02-15T04:42:32;232.65;;;171.85;;
57057;SDS011;55017;52.848;6.748;2023-02-15T04:44:58;241.90;;;177.18;;
57057;SDS011;55017;52.848;6.748;2023-02-15T04:47:24;324.63;;;179.65;;
57057;SDS011;55017;52.848;6.748;2023-02-15T04:49:50;240.07;;;180.43;;
57057;SDS011;55017;52.848;6.748;2023-02-15T04:52:16;236.98;;;179.15;;
57057;SDS011;55017;52.848;6.748;2023-02-15T04:54:43;197.55;;;174.18;;
57057;SDS011;55017;52.848;6.748;2023-02-15T04:57:09;245.15;;;175.10;;
57057;SDS011;55017;52.848;6.748;2023-02-15T04:59:35;220.60;;;172.18;;
57057;SDS011;55017;52.848;6.748;2023-02-15T05:02:01;225.70;;;175.25;;
57057;SDS011;55017;52.848;6.748;2023-02-15T05:04:27;216.93;;;174.13;;
57057;SDS011;55017;52.848;6.748;2023-02-15T05:06:53;187.88;;;171.18;;
57057;SDS011;55017;52.848;6.748;2023-02-15T05:09:19;185.30;;;172.50;;
57057;SDS011;55017;52.848;6.748;2023-02-15T05:11:45;176.27;;;166.60;;
57057;SDS011;55017;52.848;6.748;2023-02-15T05:14:11;177.98;;;168.88;;
57057;SDS011;55017;52.848;6.748;2023-02-15T05:16:37;175.20;;;166.40;;
57057;SDS011;55017;52.848;6.748;2023-02-15T05:19:03;174.00;;;165.25;;
57057;SDS011;55017;52.848;6.748;2023-02-15T05:21:29;176.05;;;167.13;;
57057;SDS011;55017;52.848;6.748;2023-02-15T05:23:55;176.10;;;166.95;;
57057;SDS011;55017;52.848;6.748;2023-02-15T05:26:22;174.70;;;165.82;;
57057;SDS011;55017;52.848;6.748;2023-02-15T05:29:07;174.00;;;165.50;;
57057;SDS011;55017;52.848;6.748;2023-02-15T05:31:34;168.80;;;160.48;;
57057;SDS011;55017;52.848;6.748;2023-02-15T05:34:00;174.30;;;165.60;;
57057;SDS011;55017;52.848;6.748;2023-02-15T05:36:26;173.18;;;165.00;;
57057;SDS011;55017;52.848;6.748;2023-02-15T05:38:53;173.25;;;165.13;;
57057;SDS011;55017;52.848;6.748;2023-02-15T05:41:19;171.77;;;163.38;;
57057;SDS011;55017;52.848;6.748;2023-02-15T05:43:45;169.30;;;161.15;;
57057;SDS011;55017;52.848;6.748;2023-02-15T05:46:11;174.13;;;165.60;;
57057;SDS011;55017;52.848;6.748;2023-02-15T05:48:37;171.32;;;163.15;;
57057;SDS011;55017;52.848;6.748;2023-02-15T05:51:05;175.07;;;166.45;;
57057;SDS011;55017;52.848;6.748;2023-02-15T05:53:31;169.63;;;161.25;;
57057;SDS011;55017;52.848;6.748;2023-02-15T05:55:58;173.43;;;164.93;;
57057;SDS011;55017;52.848;6.748;2023-02-15T05:58:25;174.02;;;165.18;;
57057;SDS011;55017;52.848;6.748;2023-02-15T06:00:52;173.63;;;164.73;;
57057;SDS011;55017;52.848;6.748;2023-02-15T06:03:17;172.13;;;163.57;;
57057;SDS011;55017;52.848;6.748;2023-02-15T06:05:43;173.98;;;165.50;;
57057;SDS011;55017;52.848;6.748;2023-02-15T06:08:10;177.30;;;168.40;;
57057;SDS011;55017;52.848;6.748;2023-02-15T06:10:36;174.68;;;165.98;;
57057;SDS011;55017;52.848;6.748;2023-02-15T06:13:01;178.60;;;168.82;;
57057;SDS011;55017;52.848;6.748;2023-02-15T06:15:28;179.40;;;169.48;;
57057;SDS011;55017;52.848;6.748;2023-02-15T06:17:54;178.45;;;169.13;;
57057;SDS011;55017;52.848;6.748;2023-02-15T06:20:19;176.23;;;167.27;;
57057;SDS011;55017;52.848;6.748;2023-02-15T06:22:46;177.93;;;168.20;;
57057;SDS011;55017;52.848;6.748;2023-02-15T06:25:12;172.13;;;163.38;;
57057;SDS011;55017;52.848;6.748;2023-02-15T06:27:40;175.68;;;166.65;;
57057;SDS011;55017;52.848;6.748;2023-02-15T06:32:32;171.77;;;162.88;;
57057;SDS011;55017;52.848;6.748;2023-02-15T06:34:58;177.98;;;168.50;;
57057;SDS011;55017;52.848;6.748;2023-02-15T06:37:24;176.23;;;166.70;;
57057;SDS011;55017;52.848;6.748;2023-02-15T06:39:51;176.10;;;167.07;;
57057;SDS011;55017;52.848;6.748;2023-02-15T06:42:17;175.55;;;166.45;;
57057;SDS011;55017;52.848;6.748;2023-02-15T06:44:43;177.27;;;167.73;;
57057;SDS011;55017;52.848;6.748;2023-02-15T06:47:09;175.10;;;166.02;;
57057;SDS011;55017;52.848;6.748;2023-02-15T06:49:36;175.63;;;166.80;;
57057;SDS011;55017;52.848;6.748;2023-02-15T06:52:02;175.82;;;166.73;;
57057;SDS011;55017;52.848;6.748;2023-02-15T06:54:28;177.48;;;168.43;;
57057;SDS011;55017;52.848;6.748;2023-02-15T06:56:54;173.57;;;164.93;;
57057;SDS011;55017;52.848;6.748;2023-02-15T06:59:20;175.80;;;166.68;;
57057;SDS011;55017;52.848;6.748;2023-02-15T07:01:46;172.93;;;163.68;;
57057;SDS011;55017;52.848;6.748;2023-02-15T07:04:12;176.20;;;167.27;;
57057;SDS011;55017;52.848;6.748;2023-02-15T07:06:38;177.38;;;168.07;;
57057;SDS011;55017;52.848;6.748;2023-02-15T07:09:05;175.63;;;166.40;;
57057;SDS011;55017;52.848;6.748;2023-02-15T07:11:31;178.02;;;168.73;;
57057;SDS011;55017;52.848;6.748;2023-02-15T07:14:15;175.27;;;166.27;;
57057;SDS011;55017;52.848;6.748;2023-02-15T07:16:41;176.10;;;167.20;;
57057;SDS011;55017;52.848;6.748;2023-02-15T07:19:07;176.05;;;166.50;;
57057;SDS011;55017;52.848;6.748;2023-02-15T07:21:34;178.07;;;168.52;;
57057;SDS011;55017;52.848;6.748;2023-02-15T07:24:00;180.10;;;170.13;;
57057;SDS011;55017;52.848;6.748;2023-02-15T07:26:26;182.85;;;172.30;;
57057;SDS011;55017;52.848;6.748;2023-02-15T07:28:52;176.73;;;167.18;;
57057;SDS011;55017;52.848;6.748;2023-02-15T07:31:18;179.75;;;169.95;;
57057;SDS011;55017;52.848;6.748;2023-02-15T07:33:44;174.60;;;165.52;;
57057;SDS011;55017;52.848;6.748;2023-02-15T07:36:10;174.85;;;165.82;;
57057;SDS011;55017;52.848;6.748;2023-02-15T07:38:37;174.75;;;165.73;;
57057;SDS011;55017;52.848;6.748;2023-02-15T07:41:05;171.68;;;162.65;;
57057;SDS011;55017;52.848;6.748;2023-02-15T07:43:32;173.50;;;164.65;;
57057;SDS011;55017;52.848;6.748;2023-02-15T07:45:59;173.48;;;164.38;;
57057;SDS011;55017;52.848;6.748;2023-02-15T07:48:25;174.95;;;165.82;;
57057;SDS011;55017;52.848;6.748;2023-02-15T07:50:52;174.13;;;165.07;;
57057;SDS011;55017;52.848;6.748;2023-02-15T07:53:18;173.00;;;164.10;;
57057;SDS011;55017;52.848;6.748;2023-02-15T07:55:44;175.93;;;166.88;;
57057;SDS011;55017;52.848;6.748;2023-02-15T07:58:10;173.27;;;164.15;;
57057;SDS011;55017;52.848;6.748;2023-02-15T08:00:36;174.20;;;165.02;;
57057;SDS011;55017;52.848;6.748;2023-02-15T08:03:24;173.88;;;164.60;;
57057;SDS011;55017;52.848;6.748;2023-02-15T08:05:54;170.93;;;161.93;;
57057;SDS011;55017;52.848;6.748;2023-02-15T08:08:20;173.98;;;164.60;;
57057;SDS011;55017;52.848;6.748;2023-02-15T08:13:47;173.07;;;163.68;;
57057;SDS011;55017;52.848;6.748;2023-02-15T08:16:21;175.23;;;166.00;;
57057;SDS011;55017;52.848;6.748;2023-02-15T08:18:47;177.20;;;167.50;;
57057;SDS011;55017;52.848;6.748;2023-02-15T08:21:13;178.93;;;169.40;;
57057;SDS011;55017;52.848;6.748;2023-02-15T08:23:39;175.80;;;166.48;;
57057;SDS011;55017;52.848;6.748;2023-02-15T08:26:05;174.48;;;164.90;;
57057;SDS011;55017;52.848;6.748;2023-02-15T08:28:31;175.30;;;165.70;;
57057;SDS011;55017;52.848;6.748;2023-02-15T08:31:04;170.90;;;162.02;;
57057;SDS011;55017;52.848;6.748;2023-02-15T08:33:30;175.43;;;166.27;;
57057;SDS011;55017;52.848;6.748;2023-02-15T08:35:56;177.18;;;168.02;;
57057;SDS011;55017;52.848;6.748;2023-02-15T08:38:23;174.32;;;165.15;;
57057;SDS011;55017;52.848;6.748;2023-02-15T08:40:49;167.93;;;159.02;;
57057;SDS011;55017;52.848;6.748;2023-02-15T08:43:15;162.50;;;154.68;;
57057;SDS011;55017;52.848;6.748;2023-02-15T08:45:41;165.32;;;157.30;;
57057;SDS011;55017;52.848;6.748;2023-02-15T08:48:07;164.90;;;156.52;;
57057;SDS011;55017;52.848;6.748;2023-02-15T08:50:33;164.10;;;156.35;;
57057;SDS011;55017;52.848;6.748;2023-02-15T08:52:59;165.45;;;157.32;;
57057;SDS011;55017;52.848;6.748;2023-02-15T08:55:25;161.82;;;154.23;;
57057;SDS011;55017;52.848;6.748;2023-02-15T08:57:52;168.95;;;160.88;;
57057;SDS011;55017;52.848;6.748;2023-02-15T09:00:20;159.23;;;151.52;;
57057;SDS011;55017;52.848;6.748;2023-02-15T09:02:50;162.23;;;154.50;;
57057;SDS011;55017;52.848;6.748;2023-02-15T09:05:17;163.10;;;155.38;;
57057;SDS011;55017;52.848;6.748;2023-02-15T09:07:43;160.43;;;153.07;;
57057;SDS011;55017;52.848;6.748;2023-02-15T09:10:09;159.02;;;151.38;;
57057;SDS011;55017;52.848;6.748;2023-02-15T09:12:35;158.55;;;150.93;;
57057;SDS011;55017;52.848;6.748;2023-02-15T09:15:01;158.98;;;151.48;;
57057;SDS011;55017;52.848;6.748;2023-02-15T09:17:27;162.63;;;154.57;;
57057;SDS011;55017;52.848;6.748;2023-02-15T09:19:53;154.73;;;147.18;;
57057;SDS011;55017;52.848;6.748;2023-02-15T09:22:19;160.98;;;153.10;;
57057;SDS011;55017;52.848;6.748;2023-02-15T09:24:45;165.18;;;157.23;;
57057;SDS011;55017;52.848;6.748;2023-02-15T09:27:11;159.30;;;151.35;;
57057;SDS011;55017;52.848;6.748;2023-02-15T09:29:37;161.00;;;153.07;;
57057;SDS011;55017;52.848;6.748;2023-02-15T09:32:03;167.60;;;159.38;;
57057;SDS011;55017;52.848;6.748;2023-02-15T09:34:29;171.20;;;162.73;;
57057;SDS011;55017;52.848;6.748;2023-02-15T09:36:55;163.85;;;155.60;;
57057;SDS011;55017;52.848;6.748;2023-02-15T09:39:25;165.57;;;157.52;;
57057;SDS011;55017;52.848;6.748;2023-02-15T09:46:51;164.55;;;156.32;;
57057;SDS011;55017;52.848;6.748;2023-02-15T09:49:24;161.68;;;153.43;;
57057;SDS011;55017;52.848;6.748;2023-02-15T09:54:37;164.88;;;156.38;;
57057;SDS011;55017;52.848;6.748;2023-02-15T10:02:34;168.82;;;160.38;;
57057;SDS011;55017;52.848;6.748;2023-02-15T10:05:25;170.98;;;162.02;;
57057;SDS011;55017;52.848;6.748;2023-02-15T10:13:20;170.52;;;161.65;;
57057;SDS011;55017;52.848;6.748;2023-02-15T10:29:11;165.18;;;156.73;;
57057;SDS011;55017;52.848;6.748;2023-02-15T10:31:48;167.45;;;158.73;;
57057;SDS011;55017;52.848;6.748;2023-02-15T10:44:47;168.57;;;159.82;;
57057;SDS011;55017;52.848;6.748;2023-02-15T10:47:23;163.95;;;155.65;;
57057;SDS011;55017;52.848;6.748;2023-02-15T10:50:10;166.50;;;157.90;;
57057;SDS011;55017;52.848;6.748;2023-02-15T10:52:57;161.27;;;152.93;;
57057;SDS011;55017;52.848;6.748;2023-02-15T10:58:12;160.48;;;152.20;;
57057;SDS011;55017;52.848;6.748;2023-02-15T11:08:23;164.60;;;156.40;;
57057;SDS011;55017;52.848;6.748;2023-02-15T11:10:51;165.55;;;157.02;;
57057;SDS011;55017;52.848;6.748;2023-02-15T11:13:19;170.20;;;161.73;;
57057;SDS011;55017;52.848;6.748;2023-02-15T11:18:21;165.45;;;157.25;;
57057;SDS011;55017;52.848;6.748;2023-02-15T11:21:02;164.43;;;155.75;;
57057;SDS011;55017;52.848;6.748;2023-02-15T11:23:30;164.10;;;155.57;;
57057;SDS011;55017;52.848;6.748;2023-02-15T11:26:02;163.82;;;155.40;;
57057;SDS011;55017;52.848;6.748;2023-02-15T11:28:33;167.70;;;159.30;;
57057;SDS011;55017;52.848;6.748;2023-02-15T11:31:02;165.00;;;156.90;;
57057;SDS011;55017;52.848;6.748;2023-02-15T11:33:29;170.25;;;161.95;;
57057;SDS011;55017;52.848;6.748;2023-02-15T11:36:01;166.55;;;158.30;;
57057;SDS011;55017;52.848;6.748;2023-02-15T11:38:31;164.02;;;155.82;;
57057;SDS011;55017;52.848;6.748;2023-02-15T11:41:05;162.38;;;154.07;;
57057;SDS011;55017;52.848;6.748;2023-02-15T11:43:46;166.55;;;158.23;;
57057;SDS011;55017;52.848;6.748;2023-02-15T11:46:13;164.15;;;155.90;;
57057;SDS011;55017;52.848;6.748;2023-02-15T11:48:40;167.55;;;158.93;;
57057;SDS011;55017;52.848;6.748;2023-02-15T11:51:08;166.38;;;157.65;;
57057;SDS011;55017;52.848;6.748;2023-02-15T11:53:38;165.85;;;157.68;;
57057;SDS011;55017;52.848;6.748;2023-02-15T11:56:04;165.88;;;157.82;;
57057;SDS011;55017;52.848;6.748;2023-02-15T12:06:13;156.95;;;149.25;;
57057;SDS011;55017;52.848;6.748;2023-02-15T12:08:42;153.23;;;145.82;;
57057;SDS011;55017;52.848;6.748;2023-02-15T12:11:15;151.95;;;144.25;;
57057;SDS011;55017;52.848;6.748;2023-02-15T12:16:24;151.50;;;144.38;;
57057;SDS011;55017;52.848;6.748;2023-02-15T12:18:50;150.02;;;142.82;;
57057;SDS011;55017;52.848;6.748;2023-02-15T12:21:31;145.23;;;138.20;;
57057;SDS011;55017;52.848;6.748;2023-02-15T12:24:44;145.25;;;138.23;;
57057;SDS011;55017;52.848;6.748;2023-02-15T12:27:01;149.93;;;142.65;;
57057;SDS011;55017;52.848;6.748;2023-02-15T12:29:30;142.10;;;135.27;;
57057;SDS011;55017;52.848;6.748;2023-02-15T12:31:56;145.93;;;139.05;;
57057;SDS011;55017;52.848;6.748;2023-02-15T12:34:35;142.75;;;136.02;;
57057;SDS011;55017;52.848;6.748;2023-02-15T12:37:14;142.52;;;135.63;;
57057;SDS011;55017;52.848;6.748;2023-02-15T12:39:50;141.43;;;134.35;;
57057;SDS011;55017;52.848;6.748;2023-02-15T12:42:16;139.25;;;132.65;;
57057;SDS011;55017;52.848;6.748;2023-02-15T12:45:19;142.63;;;135.52;;
57057;SDS011;55017;52.848;6.748;2023-02-15T12:47:31;139.43;;;132.45;;
57057;SDS011;55017;52.848;6.748;2023-02-15T12:50:08;142.05;;;135.05;;
57057;SDS011;55017;52.848;6.748;2023-02-15T12:52:41;144.52;;;137.52;;
57057;SDS011;55017;52.848;6.748;2023-02-15T12:55:11;140.65;;;133.95;;
57057;SDS011;55017;52.848;6.748;2023-02-15T12:57:43;142.45;;;135.55;;
57057;SDS011;55017;52.848;6.748;2023-02-15T13:05:21;147.20;;;140.00;;
57057;SDS011;55017;52.848;6.748;2023-02-15T13:07:52;147.27;;;139.82;;
57057;SDS011;55017;52.848;6.748;2023-02-15T13:10:23;148.70;;;141.30;;
57057;SDS011;55017;52.848;6.748;2023-02-15T13:12:50;149.30;;;141.73;;
57057;SDS011;55017;52.848;6.748;2023-02-15T13:15:38;152.75;;;145.15;;
57057;SDS011;55017;52.848;6.748;2023-02-15T13:18:08;154.55;;;147.07;;
57057;SDS011;55017;52.848;6.748;2023-02-15T13:20:36;154.90;;;147.43;;
57057;SDS011;55017;52.848;6.748;2023-02-15T13:23:06;152.15;;;144.52;;
57057;SDS011;55017;52.848;6.748;2023-02-15T13:25:44;153.57;;;145.63;;
57057;SDS011;55017;52.848;6.748;2023-02-15T13:28:15;157.77;;;149.68;;
57057;SDS011;55017;52.848;6.748;2023-02-15T13:30:43;156.68;;;148.77;;
57057;SDS011;55017;52.848;6.748;2023-02-15T13:33:29;154.43;;;146.67;;
57057;SDS011;55017;52.848;6.748;2023-02-15T13:36:08;153.38;;;145.70;;
57057;SDS011;55017;52.848;6.748;2023-02-15T13:41:04;156.80;;;148.57;;
57057;SDS011;55017;52.848;6.748;2023-02-15T13:43:38;155.80;;;148.13;;
57057;SDS011;55017;52.848;6.748;2023-02-15T13:51:22;153.90;;;146.18;;
57057;SDS011;55017;52.848;6.748;2023-02-15T13:59:06;156.77;;;149.25;;
57057;SDS011;55017;52.848;6.748;2023-02-15T14:09:36;153.82;;;146.27;;
57057;SDS011;55017;52.848;6.748;2023-02-15T14:15:02;155.93;;;147.93;;
57057;SDS011;55017;52.848;6.748;2023-02-15T14:20:22;157.52;;;149.68;;
57057;SDS011;55017;52.848;6.748;2023-02-15T14:22:55;157.07;;;149.23;;
57057;SDS011;55017;52.848;6.748;2023-02-15T14:25:33;153.85;;;145.68;;
57057;SDS011;55017;52.848;6.748;2023-02-15T14:28:06;154.52;;;146.65;;
57057;SDS011;55017;52.848;6.748;2023-02-15T14:30:36;158.95;;;150.88;;
57057;SDS011;55017;52.848;6.748;2023-02-15T14:33:25;157.90;;;150.15;;
57057;SDS011;55017;52.848;6.748;2023-02-15T14:35:54;157.52;;;149.57;;
57057;SDS011;55017;52.848;6.748;2023-02-15T14:38:32;157.73;;;150.13;;
57057;SDS011;55017;52.848;6.748;2023-02-15T14:41:04;155.98;;;148.07;;
57057;SDS011;55017;52.848;6.748;2023-02-15T14:49:06;153.55;;;145.80;;
57057;SDS011;55017;52.848;6.748;2023-02-15T14:54:08;155.65;;;148.02;;
57057;SDS011;55017;52.848;6.748;2023-02-15T14:56:34;157.38;;;149.43;;
57057;SDS011;55017;52.848;6.748;2023-02-15T15:00:01;155.32;;;147.57;;
57057;SDS011;55017;52.848;6.748;2023-02-15T15:02:03;155.68;;;148.02;;
57057;SDS011;55017;52.848;6.748;2023-02-15T15:04:31;153.50;;;146.18;;
57057;SDS011;55017;52.848;6.748;2023-02-15T15:07:00;161.63;;;153.73;;
57057;SDS011;55017;52.848;6.748;2023-02-15T15:09:29;158.55;;;150.70;;
57057;SDS011;55017;52.848;6.748;2023-02-15T15:12:12;154.63;;;146.93;;
57057;SDS011;55017;52.848;6.748;2023-02-15T15:14:42;156.52;;;148.60;;
57057;SDS011;55017;52.848;6.748;2023-02-15T15:17:11;155.05;;;147.40;;
57057;SDS011;55017;52.848;6.748;2023-02-15T15:22:17;153.25;;;145.95;;
57057;SDS011;55017;52.848;6.748;2023-02-15T15:29:54;157.40;;;149.57;;
57057;SDS011;55017;52.848;6.748;2023-02-15T15:32:20;152.32;;;144.65;;
57057;SDS011;55017;52.848;6.748;2023-02-15T15:39:57;153.20;;;145.60;;
57057;SDS011;55017;52.848;6.748;2023-02-15T15:47:45;156.60;;;148.95;;
57057;SDS011;55017;52.848;6.748;2023-02-15T15:50:19;155.02;;;147.45;;
57057;SDS011;55017;52.848;6.748;2023-02-15T15:52:52;148.57;;;141.15;;
57057;SDS011;55017;52.848;6.748;2023-02-15T15:55:19;157.23;;;149.43;;
57057;SDS011;55017;52.848;6.748;2023-02-15T15:57:48;156.75;;;148.88;;
57057;SDS011;55017;52.848;6.748;2023-02-15T16:00:26;157.05;;;148.85;;
57057;SDS011;55017;52.848;6.748;2023-02-15T16:02:54;152.88;;;145.20;;
57057;SDS011;55017;52.848;6.748;2023-02-15T16:05:21;157.18;;;149.63;;
57057;SDS011;55017;52.848;6.748;2023-02-15T16:07:47;154.68;;;146.95;;
57057;SDS011;55017;52.848;6.748;2023-02-15T16:12:46;152.20;;;144.70;;
57057;SDS011;55017;52.848;6.748;2023-02-15T16:15:20;156.05;;;148.15;;
57057;SDS011;55017;52.848;6.748;2023-02-15T16:17:47;158.48;;;150.70;;
57057;SDS011;55017;52.848;6.748;2023-02-15T16:20:16;157.57;;;149.73;;
57057;SDS011;55017;52.848;6.748;2023-02-15T16:22:46;156.07;;;148.30;;
57057;SDS011;55017;52.848;6.748;2023-02-15T16:27:43;154.48;;;146.70;;
57057;SDS011;55017;52.848;6.748;2023-02-15T16:30:26;151.52;;;143.82;;
57057;SDS011;55017;52.848;6.748;2023-02-15T16:33:02;152.68;;;145.10;;
57057;SDS011;55017;52.848;6.748;2023-02-15T16:35:29;156.90;;;149.40;;
57057;SDS011;55017;52.848;6.748;2023-02-15T16:37:55;154.80;;;147.20;;
57057;SDS011;55017;52.848;6.748;2023-02-15T16:42:51;157.80;;;150.18;;
57057;SDS011;55017;52.848;6.748;2023-02-15T16:45:18;154.20;;;146.30;;
57057;SDS011;55017;52.848;6.748;2023-02-15T16:47:46;154.55;;;146.80;;
57057;SDS011;55017;52.848;6.748;2023-02-15T16:50:46;155.57;;;147.95;;
57057;SDS011;55017;52.848;6.748;2023-02-15T16:53:05;154.85;;;147.32;;